首页
METAR-TAF:

METAR-TAF

机场 :

白原, 紐約州, 美国

纬度: 41-04-01N, 经度: 073-42-27W, 海拔: 134米

当前天气观测

该预报发布于35分钟前的14:56 UTC
风速4节,风向东转东南
温度 21°C
湿度 94%
气压 1014 hPa
能見度: 2.4公里
阴天层高于400英尺
小毛毛雨, 轻雾

METAR: KHPN 181456Z 12004KT 1 1/2SM -DZ BR OVC004 21/20 A2994 RMK AO2 RAB10E12DZB12 CIG 002V006 SLP134 P0000 60005 T02060200 58009

时间: 11:31 (15:31 UTC)

预报

该预报发布于2小时和14分钟前的13:17 UTC
预报有效从18日的 13点(UTC)到 19日的 12点(UTC)
风速5节,风向东南
能見度: 1.6公里
层高于200英尺
小雨, 轻雾
短暂存在
从 18日的 13点(UTC)到 18日的 15点(UTC)
能見度: 0.8公里
阴天层高于200英尺
从 18日的 1600点(UTC)
风速4节,风向多变
能見度: 4.8公里
多云层高于900英尺
阴天层高于2000英尺
小阵雨, 轻雾
从 18日的 2100点(UTC)
风速5节,风向
能見度: 4.8公里
多云层高于1500英尺, 积雨云.
阴天层高于3000英尺
小阵雨, 附近有雷暴
从 18日的 2300点(UTC)
风速2节,风向多变
能見度: 4.8公里
阴天层高于700英尺
轻雾, 附近有阵雨
从 19日的 0400点(UTC)
风速3节,风向多变
能見度: 3.2公里
阴天层高于500英尺
轻雾

TAF: KHPN 181317Z 1813/1912 14005KT 1SM -RA BR VV002 TEMPO 1813/1815 1/2SM FG OVC002 FM181600 VRB04KT 3SM -SHRA BR BKN009 OVC020 FM182100 17005KT 3SM -SHRA VCTS BKN015CB OVC030 FM182300 VRB02KT 3SM BR VCSH OVC007 FM190400 VRB03KT 2SM BR OVC005 AMD NOT SKED

超过4000个机场的气象观测和天气预报(METAR&TAF报告)。

可查询的气象台以黄色和红色小点在地图上表示。

将鼠标移到小点上方,可查看气象台名称。

然后点击查看天气观测和预报。

如需切换地图:点击带黑十字的绿色按钮放大地图;点击带横线的绿色按钮缩小地图;或者点击绿色箭头查看邻近地区的地图。


METAR-TAF: